sensor_id;sensor_type;location;lat;lon;timestamp;pressure;altitude;pressure_sealevel;temperature;humidity
8573;BME280;4324;42.012;24.872;2023-02-28T00:01:20;99413.47;;;11.95;58.20
8573;BME280;4324;42.012;24.872;2023-02-28T00:03:47;99404.31;;;11.89;58.31
8573;BME280;4324;42.012;24.872;2023-02-28T00:06:14;99417.59;;;11.97;58.09
8573;BME280;4324;42.012;24.872;2023-02-28T00:08:41;99422.88;;;11.97;57.97
8573;BME280;4324;42.012;24.872;2023-02-28T00:11:09;99415.28;;;11.94;58.07
8573;BME280;4324;42.012;24.872;2023-02-28T00:13:41;99421.88;;;11.90;58.25
8573;BME280;4324;42.012;24.872;2023-02-28T00:16:13;99419.91;;;11.84;58.32
8573;BME280;4324;42.012;24.872;2023-02-28T00:18:40;99415.22;;;11.78;58.21
8573;BME280;4324;42.012;24.872;2023-02-28T00:21:08;99413.22;;;11.72;58.45
8573;BME280;4324;42.012;24.872;2023-02-28T00:23:35;99424.16;;;11.69;58.64
8573;BME280;4324;42.012;24.872;2023-02-28T00:26:02;99431.13;;;11.70;58.69
8573;BME280;4324;42.012;24.872;2023-02-28T00:28:29;99423.16;;;11.70;58.59
8573;BME280;4324;42.012;24.872;2023-02-28T00:30:56;99418.34;;;11.65;58.50
8573;BME280;4324;42.012;24.872;2023-02-28T00:33:27;99412.22;;;11.65;58.63
8573;BME280;4324;42.012;24.872;2023-02-28T00:36:02;99424.16;;;11.69;58.89
8573;BME280;4324;42.012;24.872;2023-02-28T00:38:29;99424.16;;;11.69;59.00
8573;BME280;4324;42.012;24.872;2023-02-28T00:40:56;99355.94;;;11.28;58.91
8573;BME280;4324;42.012;24.872;2023-02-28T00:43:24;99411.03;;;11.59;58.74
8573;BME280;4324;42.012;24.872;2023-02-28T00:45:50;99441.41;;;11.73;58.90
8573;BME280;4324;42.012;24.872;2023-02-28T00:48:17;99438.41;;;11.68;59.23
8573;BME280;4324;42.012;24.872;2023-02-28T00:50:48;99421.13;;;11.55;59.16
8573;BME280;4324;42.012;24.872;2023-02-28T00:53:15;99427.44;;;11.54;58.95
8573;BME280;4324;42.012;24.872;2023-02-28T00:55:42;99420.78;;;11.42;59.37
8573;BME280;4324;42.012;24.872;2023-02-28T00:58:09;99432.72;;;11.46;59.63
8573;BME280;4324;42.012;24.872;2023-02-28T01:00:35;99438.84;;;11.47;59.91
8573;BME280;4324;42.012;24.872;2023-02-28T01:03:02;99444.16;;;11.47;60.27
8573;BME280;4324;42.012;24.872;2023-02-28T01:05:29;99438.66;;;11.40;60.21
8573;BME280;4324;42.012;24.872;2023-02-28T01:07:57;99437.53;;;11.43;59.87
8573;BME280;4324;42.012;24.872;2023-02-28T01:10:25;99450.28;;;11.47;59.88
8573;BME280;4324;42.012;24.872;2023-02-28T01:12:51;99460.28;;;11.53;59.84
8573;BME280;4324;42.012;24.872;2023-02-28T01:15:18;99469.56;;;11.57;59.68
8573;BME280;4324;42.012;24.872;2023-02-28T01:17:45;99475.00;;;11.56;59.34
8573;BME280;4324;42.012;24.872;2023-02-28T01:20:12;99469.84;;;11.46;59.45
8573;BME280;4324;42.012;24.872;2023-02-28T01:22:39;99470.31;;;11.42;59.82
8573;BME280;4324;42.012;24.872;2023-02-28T01:25:08;99467.16;;;11.38;59.85
8573;BME280;4324;42.012;24.872;2023-02-28T01:27:35;99484.44;;;11.42;59.76
8573;BME280;4324;42.012;24.872;2023-02-28T01:30:02;99469.78;;;11.30;59.66
8573;BME280;4324;42.012;24.872;2023-02-28T01:32:29;99485.38;;;11.33;59.91
8573;BME280;4324;42.012;24.872;2023-02-28T01:34:56;99499.13;;;11.36;60.27
8573;BME280;4324;42.012;24.872;2023-02-28T01:37:23;99491.97;;;11.29;60.41
8573;BME280;4324;42.012;24.872;2023-02-28T01:39:49;99487.47;;;11.21;60.29
8573;BME280;4324;42.012;24.872;2023-02-28T01:42:18;99508.53;;;11.31;60.14
8573;BME280;4324;42.012;24.872;2023-02-28T01:44:58;99511.69;;;11.26;60.51
8573;BME280;4324;42.012;24.872;2023-02-28T01:47:27;99504.53;;;11.27;60.53
8573;BME280;4324;42.012;24.872;2023-02-28T01:49:55;99495.91;;;11.17;60.42
8573;BME280;4324;42.012;24.872;2023-02-28T01:52:22;99501.25;;;11.25;60.40
8573;BME280;4324;42.012;24.872;2023-02-28T01:54:52;99501.72;;;11.20;60.36
8573;BME280;4324;42.012;24.872;2023-02-28T01:57:24;99501.50;;;11.13;60.57
8573;BME280;4324;42.012;24.872;2023-02-28T01:59:56;99508.69;;;11.21;60.52
8573;BME280;4324;42.012;24.872;2023-02-28T02:02:25;99507.69;;;11.22;60.23
8573;BME280;4324;42.012;24.872;2023-02-28T02:04:56;99512.84;;;11.24;60.24
8573;BME280;4324;42.012;24.872;2023-02-28T02:07:29;99493.03;;;11.10;60.60
8573;BME280;4324;42.012;24.872;2023-02-28T02:10:03;99524.41;;;11.23;60.85
8573;BME280;4324;42.012;24.872;2023-02-28T02:12:43;99533.34;;;11.22;61.11
8573;BME280;4324;42.012;24.872;2023-02-28T02:15:17;99513.75;;;11.14;60.65
8573;BME280;4324;42.012;24.872;2023-02-28T02:17:48;99524.72;;;11.20;60.60
8573;BME280;4324;42.012;24.872;2023-02-28T02:23:37;99529.66;;;11.14;60.77
8573;BME280;4324;42.012;24.872;2023-02-28T02:26:39;99514.38;;;11.08;60.55
8573;BME280;4324;42.012;24.872;2023-02-28T02:35:12;99535.94;;;11.05;60.84
8573;BME280;4324;42.012;24.872;2023-02-28T02:37:43;99522.97;;;11.02;60.78
8573;BME280;4324;42.012;24.872;2023-02-28T02:40:16;99534.75;;;11.08;60.83
8573;BME280;4324;42.012;24.872;2023-02-28T02:42:49;99532.88;;;11.00;60.64
8573;BME280;4324;42.012;24.872;2023-02-28T02:45:21;99541.56;;;11.10;61.00
8573;BME280;4324;42.012;24.872;2023-02-28T02:47:50;99547.22;;;11.15;61.18
8573;BME280;4324;42.012;24.872;2023-02-28T02:50:23;99557.22;;;11.22;60.87
8573;BME280;4324;42.012;24.872;2023-02-28T02:52:54;99557.91;;;11.24;60.73
8573;BME280;4324;42.012;24.872;2023-02-28T02:55:23;99469.78;;;10.70;60.82
8573;BME280;4324;42.012;24.872;2023-02-28T02:57:53;99557.94;;;11.32;61.25
8573;BME280;4324;42.012;24.872;2023-02-28T03:00:24;99557.63;;;11.35;61.45
8573;BME280;4324;42.012;24.872;2023-02-28T03:02:54;99548.47;;;11.29;61.23
8573;BME280;4324;42.012;24.872;2023-02-28T03:05:26;99559.28;;;11.36;61.33
8573;BME280;4324;42.012;24.872;2023-02-28T03:07:54;99565.41;;;11.36;61.63
8573;BME280;4324;42.012;24.872;2023-02-28T03:10:31;99578.19;;;11.41;61.89
8573;BME280;4324;42.012;24.872;2023-02-28T03:13:12;99575.72;;;11.39;61.85
8573;BME280;4324;42.012;24.872;2023-02-28T03:15:54;99572.16;;;11.31;61.74
8573;BME280;4324;42.012;24.872;2023-02-28T03:18:32;99587.78;;;11.34;61.89
8573;BME280;4324;42.012;24.872;2023-02-28T03:21:10;99581.28;;;11.28;62.79
8573;BME280;4324;42.012;24.872;2023-02-28T03:23:45;99584.25;;;11.25;62.69
8573;BME280;4324;42.012;24.872;2023-02-28T03:26:19;99585.69;;;11.20;62.49
8573;BME280;4324;42.012;24.872;2023-02-28T03:28:52;99592.97;;;11.18;62.45
8573;BME280;4324;42.012;24.872;2023-02-28T03:31:27;99598.88;;;11.11;62.67
8573;BME280;4324;42.012;24.872;2023-02-28T03:34:00;99592.25;;;11.07;62.96
8573;BME280;4324;42.012;24.872;2023-02-28T03:36:32;99602.19;;;11.05;63.41
8573;BME280;4324;42.012;24.872;2023-02-28T03:39:14;99591.19;;;11.00;62.76
8573;BME280;4324;42.012;24.872;2023-02-28T03:41:46;99598.19;;;11.01;63.10
8573;BME280;4324;42.012;24.872;2023-02-28T03:44:18;99580.00;;;10.88;63.39
8573;BME280;4324;42.012;24.872;2023-02-28T03:46:52;99612.78;;;11.05;63.57
8573;BME280;4324;42.012;24.872;2023-02-28T03:49:23;99625.91;;;11.15;64.19
8573;BME280;4324;42.012;24.872;2023-02-28T03:51:53;99627.13;;;11.21;63.70
8573;BME280;4324;42.012;24.872;2023-02-28T03:54:24;99625.31;;;11.21;63.69
8573;BME280;4324;42.012;24.872;2023-02-28T03:56:57;99627.78;;;11.23;63.97
8573;BME280;4324;42.012;24.872;2023-02-28T03:59:30;99629.47;;;11.24;63.97
8573;BME280;4324;42.012;24.872;2023-02-28T04:02:00;99637.09;;;11.27;64.01
8573;BME280;4324;42.012;24.872;2023-02-28T04:04:28;99632.78;;;11.26;63.80
8573;BME280;4324;42.012;24.872;2023-02-28T04:07:03;99642.41;;;11.27;63.69
8573;BME280;4324;42.012;24.872;2023-02-28T04:09:30;99625.09;;;11.14;64.09
8573;BME280;4324;42.012;24.872;2023-02-28T04:11:57;99644.41;;;11.25;64.36
8573;BME280;4324;42.012;24.872;2023-02-28T04:14:24;99643.56;;;11.24;64.65
8573;BME280;4324;42.012;24.872;2023-02-28T04:16:51;99645.91;;;11.27;64.33
8573;BME280;4324;42.012;24.872;2023-02-28T04:19:19;99632.56;;;11.19;63.68
8573;BME280;4324;42.012;24.872;2023-02-28T04:21:47;99646.66;;;11.20;64.41
8573;BME280;4324;42.012;24.872;2023-02-28T04:24:17;99633.72;;;11.17;64.57
8573;BME280;4324;42.012;24.872;2023-02-28T04:26:46;99646.81;;;11.18;63.45
8573;BME280;4324;42.012;24.872;2023-02-28T04:29:17;99645.31;;;11.15;62.95
8573;BME280;4324;42.012;24.872;2023-02-28T04:31:44;99648.59;;;11.09;63.10
8573;BME280;4324;42.012;24.872;2023-02-28T04:34:11;99650.25;;;11.10;63.64
8573;BME280;4324;42.012;24.872;2023-02-28T04:36:38;99645.25;;;11.07;64.00
8573;BME280;4324;42.012;24.872;2023-02-28T04:39:05;99647.44;;;11.12;63.89
8573;BME280;4324;42.012;24.872;2023-02-28T04:41:33;99647.81;;;11.17;63.50
8573;BME280;4324;42.012;24.872;2023-02-28T04:44:00;99643.28;;;11.09;63.30
8573;BME280;4324;42.012;24.872;2023-02-28T04:46:27;99654.03;;;11.08;63.76
8573;BME280;4324;42.012;24.872;2023-02-28T04:48:54;99662.81;;;11.08;63.97
8573;BME280;4324;42.012;24.872;2023-02-28T04:51:21;99666.16;;;11.10;63.85
8573;BME280;4324;42.012;24.872;2023-02-28T04:53:48;99663.50;;;11.10;63.61
8573;BME280;4324;42.012;24.872;2023-02-28T04:56:16;99667.97;;;11.10;63.64
8573;BME280;4324;42.012;24.872;2023-02-28T04:58:46;99656.16;;;11.04;64.06
8573;BME280;4324;42.012;24.872;2023-02-28T05:01:18;99664.50;;;11.09;64.07
8573;BME280;4324;42.012;24.872;2023-02-28T05:03:47;99665.16;;;11.11;64.11
8573;BME280;4324;42.012;24.872;2023-02-28T05:06:15;99672.44;;;11.09;63.79
8573;BME280;4324;42.012;24.872;2023-02-28T05:08:42;99672.75;;;11.06;63.92
8573;BME280;4324;42.012;24.872;2023-02-28T05:11:16;99677.06;;;11.07;64.34
8573;BME280;4324;42.012;24.872;2023-02-28T05:13:43;99680.38;;;11.09;64.68
8573;BME280;4324;42.012;24.872;2023-02-28T05:16:11;99691.22;;;11.16;64.46
8573;BME280;4324;42.012;24.872;2023-02-28T05:18:38;99679.94;;;11.14;64.36
8573;BME280;4324;42.012;24.872;2023-02-28T05:21:05;99666.09;;;11.02;64.01
8573;BME280;4324;42.012;24.872;2023-02-28T05:23:32;99684.16;;;11.07;64.57
8573;BME280;4324;42.012;24.872;2023-02-28T05:25:59;99690.38;;;11.15;65.00
8573;BME280;4324;42.012;24.872;2023-02-28T05:28:26;99691.72;;;11.20;64.74
8573;BME280;4324;42.012;24.872;2023-02-28T05:30:53;99696.72;;;11.23;64.53
8573;BME280;4324;42.012;24.872;2023-02-28T05:33:21;99704.00;;;11.21;64.64
8573;BME280;4324;42.012;24.872;2023-02-28T05:35:48;99707.31;;;11.23;64.94
8573;BME280;4324;42.012;24.872;2023-02-28T05:38:15;99693.00;;;11.15;65.25
8573;BME280;4324;42.012;24.872;2023-02-28T05:40:43;99704.66;;;11.23;65.01
8573;BME280;4324;42.012;24.872;2023-02-28T05:43:10;99713.84;;;11.28;65.19
8573;BME280;4324;42.012;24.872;2023-02-28T05:45:37;99716.63;;;11.27;65.25
8573;BME280;4324;42.012;24.872;2023-02-28T05:48:05;99720.63;;;11.31;65.41
8573;BME280;4324;42.012;24.872;2023-02-28T05:50:33;99731.25;;;11.31;65.60
8573;BME280;4324;42.012;24.872;2023-02-28T05:53:00;99732.63;;;11.35;65.60
8573;BME280;4324;42.012;24.872;2023-02-28T05:55:27;99733.31;;;11.37;65.41
8573;BME280;4324;42.012;24.872;2023-02-28T05:57:54;99707.63;;;11.20;64.98
8573;BME280;4324;42.012;24.872;2023-02-28T06:00:21;99733.91;;;11.31;65.35
8573;BME280;4324;42.012;24.872;2023-02-28T06:02:48;99717.41;;;11.19;65.76
8573;BME280;4324;42.012;24.872;2023-02-28T06:05:17;99746.56;;;11.37;65.60
8573;BME280;4324;42.012;24.872;2023-02-28T06:07:46;99737.94;;;11.35;65.10
8573;BME280;4324;42.012;24.872;2023-02-28T06:10:13;99746.25;;;11.40;65.22
8573;BME280;4324;42.012;24.872;2023-02-28T06:12:40;99738.31;;;11.40;65.59
8573;BME280;4324;42.012;24.872;2023-02-28T06:15:11;99735.03;;;11.46;65.79
8573;BME280;4324;42.012;24.872;2023-02-28T06:17:39;99727.53;;;11.42;65.24
8573;BME280;4324;42.012;24.872;2023-02-28T06:20:09;99743.84;;;11.47;64.50
8573;BME280;4324;42.012;24.872;2023-02-28T06:22:38;99751.78;;;11.47;64.69
8573;BME280;4324;42.012;24.872;2023-02-28T06:25:07;99741.25;;;11.37;65.21
8573;BME280;4324;42.012;24.872;2023-02-28T06:27:34;99764.53;;;11.43;65.04
8573;BME280;4324;42.012;24.872;2023-02-28T06:30:01;99763.59;;;11.34;64.65
8573;BME280;4324;42.012;24.872;2023-02-28T06:32:28;99765.34;;;11.26;64.73
8573;BME280;4324;42.012;24.872;2023-02-28T06:34:55;99760.75;;;11.28;64.91
8573;BME280;4324;42.012;24.872;2023-02-28T06:37:23;99743.91;;;11.19;65.28
8573;BME280;4324;42.012;24.872;2023-02-28T06:39:53;99759.50;;;11.40;65.48
8573;BME280;4324;42.012;24.872;2023-02-28T06:42:22;99754.44;;;11.47;65.55
8573;BME280;4324;42.012;24.872;2023-02-28T06:44:54;99764.81;;;11.58;65.54
8573;BME280;4324;42.012;24.872;2023-02-28T06:47:21;99764.50;;;11.61;65.47
8573;BME280;4324;42.012;24.872;2023-02-28T06:49:49;99766.38;;;11.69;65.58
8573;BME280;4324;42.012;24.872;2023-02-28T06:52:19;99765.38;;;11.70;65.59
8573;BME280;4324;42.012;24.872;2023-02-28T06:54:47;99772.22;;;11.72;65.33
8573;BME280;4324;42.012;24.872;2023-02-28T06:57:27;99771.06;;;11.75;65.06
8573;BME280;4324;42.012;24.872;2023-02-28T06:59:57;99749.41;;;11.61;65.18
8573;BME280;4324;42.012;24.872;2023-02-28T07:02:24;99767.78;;;11.81;65.03
8573;BME280;4324;42.012;24.872;2023-02-28T07:04:51;99774.94;;;11.80;64.75
8573;BME280;4324;42.012;24.872;2023-02-28T07:07:18;99768.25;;;11.76;64.79
8573;BME280;4324;42.012;24.872;2023-02-28T07:09:44;99754.78;;;11.70;64.74
8573;BME280;4324;42.012;24.872;2023-02-28T07:12:12;99756.97;;;11.56;64.97
8573;BME280;4324;42.012;24.872;2023-02-28T07:14:40;99768.00;;;11.61;65.02
8573;BME280;4324;42.012;24.872;2023-02-28T07:17:07;99759.28;;;11.51;64.72
8573;BME280;4324;42.012;24.872;2023-02-28T07:19:34;99768.31;;;11.41;64.88
8573;BME280;4324;42.012;24.872;2023-02-28T07:22:01;99774.97;;;11.45;64.96
8573;BME280;4324;42.012;24.872;2023-02-28T07:24:28;99774.13;;;11.44;65.43
8573;BME280;4324;42.012;24.872;2023-02-28T07:26:55;99767.16;;;11.43;65.28
8573;BME280;4324;42.012;24.872;2023-02-28T07:29:22;99756.56;;;11.43;65.35
8573;BME280;4324;42.012;24.872;2023-02-28T07:31:50;99765.72;;;11.49;65.19
8573;BME280;4324;42.012;24.872;2023-02-28T07:34:18;99773.22;;;11.53;65.25
8573;BME280;4324;42.012;24.872;2023-02-28T07:36:45;99753.09;;;11.43;65.07
8573;BME280;4324;42.012;24.872;2023-02-28T07:39:12;99776.53;;;11.55;65.22
8573;BME280;4324;42.012;24.872;2023-02-28T07:41:39;99771.94;;;11.57;65.24
8573;BME280;4324;42.012;24.872;2023-02-28T07:44:09;99767.59;;;11.56;65.36
8573;BME280;4324;42.012;24.872;2023-02-28T07:46:36;99761.22;;;11.49;65.35
8573;BME280;4324;42.012;24.872;2023-02-28T07:49:05;99772.59;;;11.59;65.69
8573;BME280;4324;42.012;24.872;2023-02-28T07:51:32;99777.00;;;11.69;65.86
8573;BME280;4324;42.012;24.872;2023-02-28T07:54:00;99781.38;;;11.78;65.73
8573;BME280;4324;42.012;24.872;2023-02-28T07:56:29;99769.88;;;11.87;65.46
8573;BME280;4324;42.012;24.872;2023-02-28T07:58:56;99769.22;;;11.93;65.49
8573;BME280;4324;42.012;24.872;2023-02-28T08:01:23;99785.47;;;12.16;65.46
8573;BME280;4324;42.012;24.872;2023-02-28T08:03:50;99777.34;;;12.18;65.11
8573;BME280;4324;42.012;24.872;2023-02-28T08:06:21;99772.25;;;12.24;65.07
8573;BME280;4324;42.012;24.872;2023-02-28T08:08:48;99783.06;;;12.31;64.97
8573;BME280;4324;42.012;24.872;2023-02-28T08:11:16;99785.47;;;12.42;64.99
8573;BME280;4324;42.012;24.872;2023-02-28T08:13:43;99782.84;;;12.50;64.95
8573;BME280;4324;42.012;24.872;2023-02-28T08:16:11;99782.53;;;12.53;64.54
8573;BME280;4324;42.012;24.872;2023-02-28T08:18:40;99750.88;;;12.34;64.33
8573;BME280;4324;42.012;24.872;2023-02-28T08:21:23;99784.50;;;12.51;64.56
8573;BME280;4324;42.012;24.872;2023-02-28T08:23:51;99784.00;;;12.56;64.71
8573;BME280;4324;42.012;24.872;2023-02-28T08:26:18;99776.22;;;12.63;64.44
8573;BME280;4324;42.012;24.872;2023-02-28T08:28:46;99787.53;;;12.65;63.94
8573;BME280;4324;42.012;24.872;2023-02-28T08:31:14;99791.16;;;12.55;64.20
8573;BME280;4324;42.012;24.872;2023-02-28T08:33:43;99775.31;;;12.46;64.54
8573;BME280;4324;42.012;24.872;2023-02-28T08:36:11;99700.75;;;11.97;64.66
8573;BME280;4324;42.012;24.872;2023-02-28T08:38:39;99784.19;;;12.54;64.88
8573;BME280;4324;42.012;24.872;2023-02-28T08:41:08;99790.53;;;12.62;64.17
8573;BME280;4324;42.012;24.872;2023-02-28T08:43:36;99783.19;;;12.55;64.22
8573;BME280;4324;42.012;24.872;2023-02-28T08:46:03;99768.34;;;12.45;64.51
8573;BME280;4324;42.012;24.872;2023-02-28T08:48:32;99789.03;;;12.67;64.78
8573;BME280;4324;42.012;24.872;2023-02-28T08:51:01;99773.25;;;12.57;64.51
8573;BME280;4324;42.012;24.872;2023-02-28T08:53:29;99754.28;;;12.52;64.46
8573;BME280;4324;42.012;24.872;2023-02-28T08:55:59;99779.09;;;12.77;64.63
8573;BME280;4324;42.012;24.872;2023-02-28T08:58:27;99696.16;;;12.49;64.71
8573;BME280;4324;42.012;24.872;2023-02-28T09:00:54;99776.78;;;13.25;64.71
8573;BME280;4324;42.012;24.872;2023-02-28T09:03:22;99781.44;;;13.47;64.32
8573;BME280;4324;42.012;24.872;2023-02-28T09:05:56;99760.16;;;13.47;63.97
8573;BME280;4324;42.012;24.872;2023-02-28T09:08:25;99757.81;;;13.52;63.69
8573;BME280;4324;42.012;24.872;2023-02-28T09:10:52;99763.31;;;13.59;63.82
8573;BME280;4324;42.012;24.872;2023-02-28T09:13:21;99763.97;;;13.53;64.42
8573;BME280;4324;42.012;24.872;2023-02-28T09:15:48;99763.31;;;13.43;65.20
8573;BME280;4324;42.012;24.872;2023-02-28T09:18:15;99758.16;;;13.41;65.08
8573;BME280;4324;42.012;24.872;2023-02-28T09:20:42;99739.50;;;13.17;65.58
8573;BME280;4324;42.012;24.872;2023-02-28T09:23:11;99768.28;;;13.29;65.69
8573;BME280;4324;42.012;24.872;2023-02-28T09:25:40;99761.44;;;13.19;66.00
8573;BME280;4324;42.012;24.872;2023-02-28T09:28:11;99759.25;;;13.14;66.14
8573;BME280;4324;42.012;24.872;2023-02-28T09:30:41;99757.75;;;13.03;66.17
8573;BME280;4324;42.012;24.872;2023-02-28T09:33:08;99761.56;;;13.01;66.26
8573;BME280;4324;42.012;24.872;2023-02-28T09:35:35;99744.44;;;12.87;66.13
8573;BME280;4324;42.012;24.872;2023-02-28T09:38:03;99770.31;;;12.85;65.67
8573;BME280;4324;42.012;24.872;2023-02-28T09:40:30;99761.81;;;12.65;66.13
8573;BME280;4324;42.012;24.872;2023-02-28T09:42:59;99773.34;;;12.48;66.69
8573;BME280;4324;42.012;24.872;2023-02-28T09:45:30;99760.16;;;12.30;66.58
8573;BME280;4324;42.012;24.872;2023-02-28T09:48:02;99759.94;;;12.23;66.05
8573;BME280;4324;42.012;24.872;2023-02-28T09:50:35;99766.72;;;12.18;65.30
8573;BME280;4324;42.012;24.872;2023-02-28T09:53:06;99756.84;;;12.02;65.22
8573;BME280;4324;42.012;24.872;2023-02-28T09:55:42;99765.25;;;11.97;65.41
8573;BME280;4324;42.012;24.872;2023-02-28T09:58:18;99757.69;;;12.02;65.29
8573;BME280;4324;42.012;24.872;2023-02-28T10:00:54;99747.91;;;12.03;65.37
8573;BME280;4324;42.012;24.872;2023-02-28T10:03:31;99753.75;;;12.15;65.51
8573;BME280;4324;42.012;24.872;2023-02-28T10:06:07;99761.00;;;12.04;66.04
8573;BME280;4324;42.012;24.872;2023-02-28T10:08:39;99740.72;;;11.95;66.26
8573;BME280;4324;42.012;24.872;2023-02-28T10:11:14;99750.81;;;11.92;67.19
8573;BME280;4324;42.012;24.872;2023-02-28T10:13:52;99753.13;;;11.86;67.34
8573;BME280;4324;42.012;24.872;2023-02-28T10:16:25;99745.81;;;11.89;67.05
8573;BME280;4324;42.012;24.872;2023-02-28T10:19:01;99743.00;;;11.90;66.71
8573;BME280;4324;42.012;24.872;2023-02-28T10:21:34;99739.06;;;11.94;66.71
8573;BME280;4324;42.012;24.872;2023-02-28T10:24:05;99740.19;;;11.92;66.08
8573;BME280;4324;42.012;24.872;2023-02-28T10:26:38;99730.94;;;11.78;66.39
8573;BME280;4324;42.012;24.872;2023-02-28T10:29:04;99741.50;;;11.88;66.54
8573;BME280;4324;42.012;24.872;2023-02-28T10:31:33;99719.16;;;11.72;66.09
8573;BME280;4324;42.012;24.872;2023-02-28T10:34:02;99731.63;;;11.80;65.09
8573;BME280;4324;42.012;24.872;2023-02-28T10:36:29;99729.78;;;11.72;64.63
8573;BME280;4324;42.012;24.872;2023-02-28T10:38:56;99718.41;;;11.62;64.32
8573;BME280;4324;42.012;24.872;2023-02-28T10:41:30;99726.50;;;11.60;64.61
8573;BME280;4324;42.012;24.872;2023-02-28T10:44:14;99732.97;;;11.58;64.67
8573;BME280;4324;42.012;24.872;2023-02-28T10:46:42;99710.91;;;11.31;64.15
8573;BME280;4324;42.012;24.872;2023-02-28T10:49:17;99721.50;;;11.31;64.56
8573;BME280;4324;42.012;24.872;2023-02-28T10:51:47;99727.00;;;11.38;64.84
8573;BME280;4324;42.012;24.872;2023-02-28T10:54:16;99712.31;;;11.26;65.17
8573;BME280;4324;42.012;24.872;2023-02-28T10:56:44;99724.00;;;11.33;64.97
8573;BME280;4324;42.012;24.872;2023-02-28T10:59:27;99713.31;;;11.25;64.50
8573;BME280;4324;42.012;24.872;2023-02-28T11:01:55;99717.94;;;11.23;64.67
8573;BME280;4324;42.012;24.872;2023-02-28T11:04:35;99710.66;;;11.25;65.54
8573;BME280;4324;42.012;24.872;2023-02-28T11:07:10;99714.69;;;11.29;65.50
8573;BME280;4324;42.012;24.872;2023-02-28T11:09:46;99703.59;;;11.33;64.27
8573;BME280;4324;42.012;24.872;2023-02-28T11:12:23;99693.63;;;11.27;63.62
8573;BME280;4324;42.012;24.872;2023-02-28T11:14:57;99696.59;;;11.24;63.35
8573;BME280;4324;42.012;24.872;2023-02-28T11:17:27;99705.06;;;11.28;63.44
8573;BME280;4324;42.012;24.872;2023-02-28T11:20:01;99698.31;;;11.15;63.81
8573;BME280;4324;42.012;24.872;2023-02-28T11:22:31;99679.94;;;10.96;64.02
8573;BME280;4324;42.012;24.872;2023-02-28T11:25:02;99703.56;;;11.07;64.68
8573;BME280;4324;42.012;24.872;2023-02-28T11:27:45;99669.63;;;10.93;64.96
8573;BME280;4324;42.012;24.872;2023-02-28T11:30:31;99698.47;;;11.14;65.08
8573;BME280;4324;42.012;24.872;2023-02-28T11:33:23;99685.00;;;11.07;64.78
8573;BME280;4324;42.012;24.872;2023-02-28T11:35:52;99694.19;;;10.95;64.63
8573;BME280;4324;42.012;24.872;2023-02-28T11:38:24;99712.44;;;10.98;64.94
8573;BME280;4324;42.012;24.872;2023-02-28T11:41:06;99697.88;;;11.02;65.84
8573;BME280;4324;42.012;24.872;2023-02-28T11:43:58;99687.34;;;11.10;66.30
8573;BME280;4324;42.012;24.872;2023-02-28T11:46:33;99683.41;;;11.14;65.87
8573;BME280;4324;42.012;24.872;2023-02-28T11:49:14;99691.06;;;11.18;66.04
8573;BME280;4324;42.012;24.872;2023-02-28T11:51:53;99684.63;;;11.02;65.82
8573;BME280;4324;42.012;24.872;2023-02-28T11:54:50;99692.06;;;11.17;66.52
8573;BME280;4324;42.012;24.872;2023-02-28T11:57:33;99688.94;;;11.21;66.28
8573;BME280;4324;42.012;24.872;2023-02-28T12:00:08;99684.09;;;11.17;65.90
8573;BME280;4324;42.012;24.872;2023-02-28T12:02:54;99697.72;;;11.22;66.29
8573;BME280;4324;42.012;24.872;2023-02-28T12:05:31;99681.59;;;11.15;66.74
8573;BME280;4324;42.012;24.872;2023-02-28T12:08:11;99695.53;;;11.17;66.86
8573;BME280;4324;42.012;24.872;2023-02-28T12:10:57;99691.06;;;11.18;66.98
8573;BME280;4324;42.012;24.872;2023-02-28T12:13:37;99685.91;;;11.16;66.75
8573;BME280;4324;42.012;24.872;2023-02-28T12:16:25;99690.06;;;11.19;66.99
8573;BME280;4324;42.012;24.872;2023-02-28T12:19:07;99680.28;;;11.19;66.90
8573;BME280;4324;42.012;24.872;2023-02-28T12:21:46;99669.84;;;11.18;67.08
8573;BME280;4324;42.012;24.872;2023-02-28T12:24:32;99685.81;;;11.26;66.90
8573;BME280;4324;42.012;24.872;2023-02-28T12:27:08;99680.50;;;11.26;66.21
8573;BME280;4324;42.012;24.872;2023-02-28T12:29:46;99681.13;;;11.20;66.69
8573;BME280;4324;42.012;24.872;2023-02-28T12:32:18;99683.41;;;11.14;67.39
8573;BME280;4324;42.012;24.872;2023-02-28T12:34:49;99678.41;;;11.11;67.43
8573;BME280;4324;42.012;24.872;2023-02-28T12:37:23;99660.47;;;11.05;67.61
8573;BME280;4324;42.012;24.872;2023-02-28T12:40:00;99680.47;;;11.18;67.40
8573;BME280;4324;42.012;24.872;2023-02-28T12:42:33;99660.47;;;11.05;67.88
8573;BME280;4324;42.012;24.872;2023-02-28T12:45:04;99652.53;;;11.05;68.65
8573;BME280;4324;42.012;24.872;2023-02-28T12:47:34;99674.56;;;11.24;68.99
8573;BME280;4324;42.012;24.872;2023-02-28T12:50:04;99654.78;;;11.18;68.28
8573;BME280;4324;42.012;24.872;2023-02-28T12:52:37;99659.00;;;11.29;68.38
8573;BME280;4324;42.012;24.872;2023-02-28T12:55:15;99660.97;;;11.27;68.34
8573;BME280;4324;42.012;24.872;2023-02-28T12:57:49;99664.84;;;11.32;68.39
8573;BME280;4324;42.012;24.872;2023-02-28T13:00:20;99667.31;;;11.34;68.80
8573;BME280;4324;42.012;24.872;2023-02-28T13:06:00;99572.25;;;10.69;68.83
8573;BME280;4324;42.012;24.872;2023-02-28T13:08:56;99663.47;;;11.28;69.53
8573;BME280;4324;42.012;24.872;2023-02-28T13:11:29;99668.13;;;11.34;69.84
8573;BME280;4324;42.012;24.872;2023-02-28T13:13:59;99665.34;;;11.36;69.91
8573;BME280;4324;42.012;24.872;2023-02-28T13:16:26;99652.34;;;11.25;69.57
8573;BME280;4324;42.012;24.872;2023-02-28T13:19:09;99665.34;;;11.36;70.03
8573;BME280;4324;42.012;24.872;2023-02-28T13:21:44;99667.69;;;11.39;70.59
8573;BME280;4324;42.012;24.872;2023-02-28T13:24:11;99663.38;;;11.38;70.45
8573;BME280;4324;42.012;24.872;2023-02-28T13:27:25;99652.31;;;11.43;70.69
8573;BME280;4324;42.012;24.872;2023-02-28T13:29:58;99652.31;;;11.43;69.82
8573;BME280;4324;42.012;24.872;2023-02-28T13:32:34;99666.91;;;11.47;69.27
8573;BME280;4324;42.012;24.872;2023-02-28T13:35:42;99659.44;;;11.42;69.91
8573;BME280;4324;42.012;24.872;2023-02-28T13:38:35;99667.41;;;11.42;69.92
8573;BME280;4324;42.012;24.872;2023-02-28T13:41:43;99657.91;;;11.39;69.01
8573;BME280;4324;42.012;24.872;2023-02-28T13:44:12;99640.59;;;11.27;68.64